sensor_id;sensor_type;location;lat;lon;timestamp;P1;durP1;ratioP1;P2;durP2;ratioP2
1382;SDS011;685;47.196;11.880;2022-09-25T00:00:50;3.47;;;3.20;;
1382;SDS011;685;47.196;11.880;2022-09-25T00:03:21;3.87;;;3.47;;
1382;SDS011;685;47.196;11.880;2022-09-25T00:05:49;3.60;;;2.97;;
1382;SDS011;685;47.196;11.880;2022-09-25T00:08:17;3.47;;;2.90;;
1382;SDS011;685;47.196;11.880;2022-09-25T00:10:45;3.17;;;2.87;;
1382;SDS011;685;47.196;11.880;2022-09-25T00:13:13;4.77;;;3.00;;
1382;SDS011;685;47.196;11.880;2022-09-25T00:15:44;3.77;;;3.47;;
1382;SDS011;685;47.196;11.880;2022-09-25T00:18:12;4.03;;;3.30;;
1382;SDS011;685;47.196;11.880;2022-09-25T00:20:41;5.07;;;3.57;;
1382;SDS011;685;47.196;11.880;2022-09-25T00:23:07;3.43;;;3.10;;
1382;SDS011;685;47.196;11.880;2022-09-25T00:25:34;3.90;;;3.50;;
1382;SDS011;685;47.196;11.880;2022-09-25T00:28:01;3.43;;;3.13;;
1382;SDS011;685;47.196;11.880;2022-09-25T00:30:28;6.20;;;3.20;;
1382;SDS011;685;47.196;11.880;2022-09-25T00:32:55;4.27;;;3.13;;
1382;SDS011;685;47.196;11.880;2022-09-25T00:35:22;5.27;;;3.90;;
1382;SDS011;685;47.196;11.880;2022-09-25T00:37:50;4.70;;;4.37;;
1382;SDS011;685;47.196;11.880;2022-09-25T00:40:17;4.27;;;3.87;;
1382;SDS011;685;47.196;11.880;2022-09-25T00:42:44;4.07;;;3.67;;
1382;SDS011;685;47.196;11.880;2022-09-25T00:45:13;4.40;;;4.00;;
1382;SDS011;685;47.196;11.880;2022-09-25T00:47:51;4.07;;;3.70;;
1382;SDS011;685;47.196;11.880;2022-09-25T00:50:26;4.30;;;3.90;;
1382;SDS011;685;47.196;11.880;2022-09-25T00:53:00;3.40;;;3.10;;
1382;SDS011;685;47.196;11.880;2022-09-25T00:55:30;3.23;;;2.87;;
1382;SDS011;685;47.196;11.880;2022-09-25T00:57:59;3.10;;;2.80;;
1382;SDS011;685;47.196;11.880;2022-09-25T01:00:28;3.80;;;2.60;;
1382;SDS011;685;47.196;11.880;2022-09-25T01:02:55;3.23;;;2.93;;
1382;SDS011;685;47.196;11.880;2022-09-25T01:05:24;3.03;;;2.73;;
1382;SDS011;685;47.196;11.880;2022-09-25T01:07:54;3.00;;;2.50;;
1382;SDS011;685;47.196;11.880;2022-09-25T01:10:24;3.13;;;2.93;;
1382;SDS011;685;47.196;11.880;2022-09-25T01:12:52;4.20;;;3.80;;
1382;SDS011;685;47.196;11.880;2022-09-25T01:15:22;4.50;;;4.10;;
1382;SDS011;685;47.196;11.880;2022-09-25T01:17:56;3.70;;;3.37;;
1382;SDS011;685;47.196;11.880;2022-09-25T01:23:36;4.43;;;3.63;;
1382;SDS011;685;47.196;11.880;2022-09-25T01:29:34;3.40;;;3.10;;
1382;SDS011;685;47.196;11.880;2022-09-25T01:32:06;5.00;;;4.10;;
1382;SDS011;685;47.196;11.880;2022-09-25T01:34:39;3.37;;;3.07;;
1382;SDS011;685;47.196;11.880;2022-09-25T01:37:14;3.43;;;3.13;;
1382;SDS011;685;47.196;11.880;2022-09-25T01:39:49;2.80;;;2.60;;
1382;SDS011;685;47.196;11.880;2022-09-25T01:42:24;3.80;;;3.40;;
1382;SDS011;685;47.196;11.880;2022-09-25T01:44:56;3.57;;;2.67;;
1382;SDS011;685;47.196;11.880;2022-09-25T01:47:27;3.93;;;3.53;;
1382;SDS011;685;47.196;11.880;2022-09-25T01:49:56;3.90;;;3.33;;
1382;SDS011;685;47.196;11.880;2022-09-25T01:52:27;4.13;;;3.27;;
1382;SDS011;685;47.196;11.880;2022-09-25T01:54:59;4.17;;;2.70;;
1382;SDS011;685;47.196;11.880;2022-09-25T01:57:33;5.63;;;3.30;;
1382;SDS011;685;47.196;11.880;2022-09-25T02:00:08;3.27;;;2.53;;
1382;SDS011;685;47.196;11.880;2022-09-25T02:02:37;4.03;;;2.83;;
1382;SDS011;685;47.196;11.880;2022-09-25T02:05:11;4.50;;;3.27;;
1382;SDS011;685;47.196;11.880;2022-09-25T02:07:43;3.20;;;2.90;;
1382;SDS011;685;47.196;11.880;2022-09-25T02:10:14;3.97;;;2.70;;
1382;SDS011;685;47.196;11.880;2022-09-25T02:12:46;3.27;;;2.97;;
1382;SDS011;685;47.196;11.880;2022-09-25T02:15:18;4.57;;;3.17;;
1382;SDS011;685;47.196;11.880;2022-09-25T02:17:51;3.30;;;2.90;;
1382;SDS011;685;47.196;11.880;2022-09-25T02:20:40;2.60;;;2.10;;
1382;SDS011;685;47.196;11.880;2022-09-25T02:23:17;3.17;;;2.87;;
1382;SDS011;685;47.196;11.880;2022-09-25T02:25:48;3.13;;;2.33;;
1382;SDS011;685;47.196;11.880;2022-09-25T02:28:20;3.23;;;2.90;;
1382;SDS011;685;47.196;11.880;2022-09-25T02:30:49;3.40;;;3.10;;
1382;SDS011;685;47.196;11.880;2022-09-25T02:33:19;3.10;;;2.77;;
1382;SDS011;685;47.196;11.880;2022-09-25T02:35:46;2.57;;;2.37;;
1382;SDS011;685;47.196;11.880;2022-09-25T02:38:14;2.67;;;2.47;;
1382;SDS011;685;47.196;11.880;2022-09-25T02:40:43;2.50;;;2.30;;
1382;SDS011;685;47.196;11.880;2022-09-25T02:43:19;2.47;;;2.27;;
1382;SDS011;685;47.196;11.880;2022-09-25T02:45:59;3.77;;;2.90;;
1382;SDS011;685;47.196;11.880;2022-09-25T02:48:36;3.03;;;2.73;;
1382;SDS011;685;47.196;11.880;2022-09-25T02:51:16;3.27;;;2.97;;
1382;SDS011;685;47.196;11.880;2022-09-25T02:53:49;3.60;;;3.00;;
1382;SDS011;685;47.196;11.880;2022-09-25T02:56:24;3.83;;;3.10;;
1382;SDS011;685;47.196;11.880;2022-09-25T02:58:56;3.33;;;3.03;;
1382;SDS011;685;47.196;11.880;2022-09-25T03:01:30;3.30;;;2.60;;
1382;SDS011;685;47.196;11.880;2022-09-25T03:04:00;3.37;;;2.90;;
1382;SDS011;685;47.196;11.880;2022-09-25T03:06:29;3.17;;;2.87;;
1382;SDS011;685;47.196;11.880;2022-09-25T03:08:56;2.63;;;2.30;;
1382;SDS011;685;47.196;11.880;2022-09-25T03:11:26;2.50;;;2.30;;
1382;SDS011;685;47.196;11.880;2022-09-25T03:13:56;2.63;;;2.23;;
1382;SDS011;685;47.196;11.880;2022-09-25T03:16:26;2.83;;;2.40;;
1382;SDS011;685;47.196;11.880;2022-09-25T03:18:59;2.20;;;2.00;;
1382;SDS011;685;47.196;11.880;2022-09-25T03:21:27;2.80;;;2.37;;
1382;SDS011;685;47.196;11.880;2022-09-25T03:23:53;2.97;;;2.40;;
1382;SDS011;685;47.196;11.880;2022-09-25T03:26:22;3.50;;;2.10;;
1382;SDS011;685;47.196;11.880;2022-09-25T03:28:50;2.50;;;2.30;;
1382;SDS011;685;47.196;11.880;2022-09-25T03:31:17;1.93;;;1.60;;
1382;SDS011;685;47.196;11.880;2022-09-25T03:33:46;2.10;;;1.90;;
1382;SDS011;685;47.196;11.880;2022-09-25T03:36:13;2.73;;;2.13;;
1382;SDS011;685;47.196;11.880;2022-09-25T03:38:42;2.80;;;2.57;;
1382;SDS011;685;47.196;11.880;2022-09-25T03:41:11;2.67;;;2.47;;
1382;SDS011;685;47.196;11.880;2022-09-25T03:43:41;3.17;;;2.50;;
1382;SDS011;685;47.196;11.880;2022-09-25T03:46:10;2.80;;;2.60;;
1382;SDS011;685;47.196;11.880;2022-09-25T03:48:38;2.93;;;2.33;;
1382;SDS011;685;47.196;11.880;2022-09-25T03:51:07;2.33;;;2.13;;
1382;SDS011;685;47.196;11.880;2022-09-25T03:53:35;3.03;;;2.57;;
1382;SDS011;685;47.196;11.880;2022-09-25T03:56:03;4.53;;;2.30;;
1382;SDS011;685;47.196;11.880;2022-09-25T03:58:32;2.33;;;2.10;;
1382;SDS011;685;47.196;11.880;2022-09-25T04:01:00;2.50;;;1.80;;
1382;SDS011;685;47.196;11.880;2022-09-25T04:03:28;2.63;;;2.07;;
1382;SDS011;685;47.196;11.880;2022-09-25T04:05:56;4.30;;;2.17;;
1382;SDS011;685;47.196;11.880;2022-09-25T04:08:25;3.93;;;2.13;;
1382;SDS011;685;47.196;11.880;2022-09-25T04:10:53;2.37;;;2.17;;
1382;SDS011;685;47.196;11.880;2022-09-25T04:13:23;2.70;;;2.50;;
1382;SDS011;685;47.196;11.880;2022-09-25T04:15:51;3.10;;;2.30;;
1382;SDS011;685;47.196;11.880;2022-09-25T04:18:18;2.83;;;2.57;;
1382;SDS011;685;47.196;11.880;2022-09-25T04:20:44;2.63;;;2.43;;
1382;SDS011;685;47.196;11.880;2022-09-25T04:23:11;2.60;;;2.33;;
1382;SDS011;685;47.196;11.880;2022-09-25T04:25:40;2.63;;;2.20;;
1382;SDS011;685;47.196;11.880;2022-09-25T04:28:07;4.83;;;2.77;;
1382;SDS011;685;47.196;11.880;2022-09-25T04:30:34;3.27;;;2.30;;
1382;SDS011;685;47.196;11.880;2022-09-25T04:33:01;2.20;;;2.00;;
1382;SDS011;685;47.196;11.880;2022-09-25T04:35:46;2.90;;;2.50;;
1382;SDS011;685;47.196;11.880;2022-09-25T04:38:13;3.53;;;2.90;;
1382;SDS011;685;47.196;11.880;2022-09-25T04:40:41;2.53;;;2.33;;
1382;SDS011;685;47.196;11.880;2022-09-25T04:43:10;2.63;;;2.23;;
1382;SDS011;685;47.196;11.880;2022-09-25T04:45:37;2.83;;;2.40;;
1382;SDS011;685;47.196;11.880;2022-09-25T04:48:04;5.13;;;3.13;;
1382;SDS011;685;47.196;11.880;2022-09-25T04:50:31;2.90;;;2.60;;
1382;SDS011;685;47.196;11.880;2022-09-25T04:52:59;2.90;;;2.70;;
1382;SDS011;685;47.196;11.880;2022-09-25T04:55:27;3.43;;;2.97;;
1382;SDS011;685;47.196;11.880;2022-09-25T04:57:56;3.53;;;2.40;;
1382;SDS011;685;47.196;11.880;2022-09-25T05:00:25;5.57;;;4.10;;
1382;SDS011;685;47.196;11.880;2022-09-25T05:02:53;3.70;;;2.43;;
1382;SDS011;685;47.196;11.880;2022-09-25T05:05:20;3.47;;;2.30;;
1382;SDS011;685;47.196;11.880;2022-09-25T05:07:54;4.83;;;2.67;;
1382;SDS011;685;47.196;11.880;2022-09-25T05:10:23;2.77;;;2.47;;
1382;SDS011;685;47.196;11.880;2022-09-25T05:12:53;2.60;;;2.30;;
1382;SDS011;685;47.196;11.880;2022-09-25T05:15:22;3.60;;;2.80;;
1382;SDS011;685;47.196;11.880;2022-09-25T05:17:49;4.63;;;2.57;;
1382;SDS011;685;47.196;11.880;2022-09-25T05:20:25;7.90;;;5.30;;
1382;SDS011;685;47.196;11.880;2022-09-25T05:22:53;7.97;;;3.70;;
1382;SDS011;685;47.196;11.880;2022-09-25T05:25:20;3.63;;;2.60;;
1382;SDS011;685;47.196;11.880;2022-09-25T05:27:49;2.53;;;2.33;;
1382;SDS011;685;47.196;11.880;2022-09-25T05:30:19;2.90;;;2.60;;
1382;SDS011;685;47.196;11.880;2022-09-25T05:32:47;2.83;;;2.63;;
1382;SDS011;685;47.196;11.880;2022-09-25T05:35:15;4.27;;;2.03;;
1382;SDS011;685;47.196;11.880;2022-09-25T05:37:42;2.30;;;2.10;;
1382;SDS011;685;47.196;11.880;2022-09-25T05:40:09;2.33;;;2.10;;
1382;SDS011;685;47.196;11.880;2022-09-25T05:42:36;2.50;;;2.30;;
1382;SDS011;685;47.196;11.880;2022-09-25T05:45:04;3.00;;;2.57;;
1382;SDS011;685;47.196;11.880;2022-09-25T05:47:32;2.50;;;2.17;;
1382;SDS011;685;47.196;11.880;2022-09-25T05:49:59;6.57;;;2.73;;
1382;SDS011;685;47.196;11.880;2022-09-25T05:52:28;6.17;;;2.73;;
1382;SDS011;685;47.196;11.880;2022-09-25T05:54:55;2.30;;;2.10;;
1382;SDS011;685;47.196;11.880;2022-09-25T05:57:22;2.73;;;2.53;;
1382;SDS011;685;47.196;11.880;2022-09-25T05:59:49;4.20;;;3.80;;
1382;SDS011;685;47.196;11.880;2022-09-25T06:02:16;4.97;;;4.57;;
1382;SDS011;685;47.196;11.880;2022-09-25T06:04:44;5.10;;;4.70;;
1382;SDS011;685;47.196;11.880;2022-09-25T06:07:11;4.67;;;4.23;;
1382;SDS011;685;47.196;11.880;2022-09-25T06:09:38;5.10;;;4.60;;
1382;SDS011;685;47.196;11.880;2022-09-25T06:12:05;7.27;;;5.00;;
1382;SDS011;685;47.196;11.880;2022-09-25T06:14:32;7.50;;;4.97;;
1382;SDS011;685;47.196;11.880;2022-09-25T06:17:01;5.67;;;5.20;;
1382;SDS011;685;47.196;11.880;2022-09-25T06:19:28;4.80;;;4.30;;
1382;SDS011;685;47.196;11.880;2022-09-25T06:21:57;4.73;;;4.33;;
1382;SDS011;685;47.196;11.880;2022-09-25T06:24:23;4.90;;;4.40;;
1382;SDS011;685;47.196;11.880;2022-09-25T06:26:50;4.53;;;4.13;;
1382;SDS011;685;47.196;11.880;2022-09-25T06:29:17;3.93;;;3.57;;
1382;SDS011;685;47.196;11.880;2022-09-25T06:31:44;3.97;;;3.60;;
1382;SDS011;685;47.196;11.880;2022-09-25T06:34:11;4.23;;;3.87;;
1382;SDS011;685;47.196;11.880;2022-09-25T06:36:38;5.47;;;4.00;;
1382;SDS011;685;47.196;11.880;2022-09-25T06:39:07;10.07;;;8.50;;
1382;SDS011;685;47.196;11.880;2022-09-25T06:41:34;9.90;;;8.00;;
1382;SDS011;685;47.196;11.880;2022-09-25T06:44:01;7.30;;;5.83;;
1382;SDS011;685;47.196;11.880;2022-09-25T06:46:28;5.40;;;4.37;;
1382;SDS011;685;47.196;11.880;2022-09-25T06:48:55;5.30;;;4.90;;
1382;SDS011;685;47.196;11.880;2022-09-25T06:51:23;5.23;;;4.77;;
1382;SDS011;685;47.196;11.880;2022-09-25T06:53:56;7.00;;;6.00;;
1382;SDS011;685;47.196;11.880;2022-09-25T06:56:25;8.40;;;7.27;;
1382;SDS011;685;47.196;11.880;2022-09-25T06:58:52;6.83;;;6.23;;
1382;SDS011;685;47.196;11.880;2022-09-25T07:01:19;6.70;;;6.07;;
1382;SDS011;685;47.196;11.880;2022-09-25T07:03:45;6.60;;;6.00;;
1382;SDS011;685;47.196;11.880;2022-09-25T07:06:13;6.47;;;5.67;;
1382;SDS011;685;47.196;11.880;2022-09-25T07:08:42;8.20;;;7.43;;
1382;SDS011;685;47.196;11.880;2022-09-25T07:11:12;7.93;;;7.13;;
1382;SDS011;685;47.196;11.880;2022-09-25T07:13:42;7.63;;;6.90;;
1382;SDS011;685;47.196;11.880;2022-09-25T07:16:10;6.17;;;5.57;;
1382;SDS011;685;47.196;11.880;2022-09-25T07:18:39;7.07;;;6.37;;
1382;SDS011;685;47.196;11.880;2022-09-25T07:21:06;6.10;;;5.57;;
1382;SDS011;685;47.196;11.880;2022-09-25T07:23:35;6.40;;;5.80;;
1382;SDS011;685;47.196;11.880;2022-09-25T07:26:03;9.70;;;5.47;;
1382;SDS011;685;47.196;11.880;2022-09-25T07:28:32;6.27;;;5.70;;
1382;SDS011;685;47.196;11.880;2022-09-25T07:31:09;6.20;;;5.10;;
1382;SDS011;685;47.196;11.880;2022-09-25T07:33:37;4.70;;;4.30;;
1382;SDS011;685;47.196;11.880;2022-09-25T07:36:04;4.50;;;4.03;;
1382;SDS011;685;47.196;11.880;2022-09-25T07:38:32;6.13;;;5.30;;
1382;SDS011;685;47.196;11.880;2022-09-25T07:41:02;5.80;;;5.20;;
1382;SDS011;685;47.196;11.880;2022-09-25T07:43:30;7.23;;;6.53;;
1382;SDS011;685;47.196;11.880;2022-09-25T07:45:57;6.67;;;5.97;;
1382;SDS011;685;47.196;11.880;2022-09-25T07:48:25;8.90;;;6.23;;
1382;SDS011;685;47.196;11.880;2022-09-25T07:50:58;4.50;;;4.10;;
1382;SDS011;685;47.196;11.880;2022-09-25T07:53:25;4.63;;;4.20;;
1382;SDS011;685;47.196;11.880;2022-09-25T07:55:54;5.00;;;4.50;;
1382;SDS011;685;47.196;11.880;2022-09-25T07:58:22;3.43;;;3.13;;
1382;SDS011;685;47.196;11.880;2022-09-25T08:00:50;3.70;;;3.40;;
1382;SDS011;685;47.196;11.880;2022-09-25T08:03:17;4.17;;;3.30;;
1382;SDS011;685;47.196;11.880;2022-09-25T08:05:45;3.47;;;3.17;;
1382;SDS011;685;47.196;11.880;2022-09-25T08:08:12;4.50;;;3.83;;
1382;SDS011;685;47.196;11.880;2022-09-25T08:10:39;3.83;;;3.13;;
1382;SDS011;685;47.196;11.880;2022-09-25T08:13:06;4.10;;;3.57;;
1382;SDS011;685;47.196;11.880;2022-09-25T08:15:33;2.77;;;2.23;;
1382;SDS011;685;47.196;11.880;2022-09-25T08:18:00;3.00;;;2.80;;
1382;SDS011;685;47.196;11.880;2022-09-25T08:20:27;3.63;;;3.33;;
1382;SDS011;685;47.196;11.880;2022-09-25T08:22:55;3.37;;;3.07;;
1382;SDS011;685;47.196;11.880;2022-09-25T08:25:23;2.87;;;2.60;;
1382;SDS011;685;47.196;11.880;2022-09-25T08:27:50;3.17;;;2.97;;
1382;SDS011;685;47.196;11.880;2022-09-25T08:30:17;3.33;;;3.03;;
1382;SDS011;685;47.196;11.880;2022-09-25T08:32:44;3.20;;;2.63;;
1382;SDS011;685;47.196;11.880;2022-09-25T08:35:11;4.23;;;3.10;;
1382;SDS011;685;47.196;11.880;2022-09-25T08:37:39;3.70;;;3.40;;
1382;SDS011;685;47.196;11.880;2022-09-25T08:40:10;3.90;;;3.20;;
1382;SDS011;685;47.196;11.880;2022-09-25T08:42:44;4.10;;;2.93;;
1382;SDS011;685;47.196;11.880;2022-09-25T08:45:18;3.87;;;3.33;;
1382;SDS011;685;47.196;11.880;2022-09-25T08:48:08;3.47;;;3.17;;
1382;SDS011;685;47.196;11.880;2022-09-25T08:51:02;3.40;;;3.10;;
1382;SDS011;685;47.196;11.880;2022-09-25T08:53:31;3.17;;;2.73;;
1382;SDS011;685;47.196;11.880;2022-09-25T08:56:01;3.23;;;2.93;;
1382;SDS011;685;47.196;11.880;2022-09-25T08:58:49;3.70;;;2.93;;
1382;SDS011;685;47.196;11.880;2022-09-25T09:01:19;3.17;;;2.80;;
1382;SDS011;685;47.196;11.880;2022-09-25T09:03:50;3.10;;;2.90;;
1382;SDS011;685;47.196;11.880;2022-09-25T09:06:22;3.03;;;2.40;;
1382;SDS011;685;47.196;11.880;2022-09-25T09:08:53;3.20;;;2.43;;
1382;SDS011;685;47.196;11.880;2022-09-25T09:11:25;3.43;;;2.80;;
1382;SDS011;685;47.196;11.880;2022-09-25T09:13:59;2.53;;;2.33;;
1382;SDS011;685;47.196;11.880;2022-09-25T09:16:32;3.17;;;2.87;;
1382;SDS011;685;47.196;11.880;2022-09-25T09:19:04;2.60;;;2.40;;
1382;SDS011;685;47.196;11.880;2022-09-25T09:21:33;2.83;;;2.27;;
1382;SDS011;685;47.196;11.880;2022-09-25T09:24:05;2.60;;;2.03;;
1382;SDS011;685;47.196;11.880;2022-09-25T09:26:44;2.53;;;2.33;;
1382;SDS011;685;47.196;11.880;2022-09-25T09:29:25;2.63;;;2.07;;
1382;SDS011;685;47.196;11.880;2022-09-25T09:32:09;2.60;;;2.40;;
1382;SDS011;685;47.196;11.880;2022-09-25T09:34:54;2.00;;;1.80;;
1382;SDS011;685;47.196;11.880;2022-09-25T09:37:33;3.23;;;2.23;;
1382;SDS011;685;47.196;11.880;2022-09-25T09:40:15;2.97;;;2.50;;
1382;SDS011;685;47.196;11.880;2022-09-25T09:42:51;2.57;;;2.37;;
1382;SDS011;685;47.196;11.880;2022-09-25T09:45:30;2.30;;;2.10;;
1382;SDS011;685;47.196;11.880;2022-09-25T09:48:05;2.40;;;2.20;;
1382;SDS011;685;47.196;11.880;2022-09-25T09:50:41;2.73;;;2.20;;
1382;SDS011;685;47.196;11.880;2022-09-25T09:53:14;2.80;;;2.40;;
1382;SDS011;685;47.196;11.880;2022-09-25T09:55:49;3.27;;;2.50;;
1382;SDS011;685;47.196;11.880;2022-09-25T09:58:20;6.00;;;3.30;;
1382;SDS011;685;47.196;11.880;2022-09-25T10:00:49;2.80;;;2.60;;
1382;SDS011;685;47.196;11.880;2022-09-25T10:03:18;2.80;;;2.47;;
1382;SDS011;685;47.196;11.880;2022-09-25T10:05:48;3.10;;;2.70;;
1382;SDS011;685;47.196;11.880;2022-09-25T10:08:18;2.37;;;2.10;;
1382;SDS011;685;47.196;11.880;2022-09-25T10:10:45;2.83;;;2.60;;
1382;SDS011;685;47.196;11.880;2022-09-25T10:13:18;2.87;;;2.67;;
1382;SDS011;685;47.196;11.880;2022-09-25T10:15:49;3.10;;;2.80;;
1382;SDS011;685;47.196;11.880;2022-09-25T10:18:18;4.73;;;4.17;;
1382;SDS011;685;47.196;11.880;2022-09-25T10:20:50;6.53;;;5.90;;
1382;SDS011;685;47.196;11.880;2022-09-25T10:23:29;3.80;;;3.50;;
1382;SDS011;685;47.196;11.880;2022-09-25T10:26:00;2.93;;;2.73;;
1382;SDS011;685;47.196;11.880;2022-09-25T10:28:30;3.67;;;3.00;;
1382;SDS011;685;47.196;11.880;2022-09-25T10:30:59;3.87;;;3.47;;
1382;SDS011;685;47.196;11.880;2022-09-25T10:33:28;3.73;;;3.43;;
1382;SDS011;685;47.196;11.880;2022-09-25T10:35:56;4.50;;;3.90;;
1382;SDS011;685;47.196;11.880;2022-09-25T10:38:27;3.77;;;3.47;;
1382;SDS011;685;47.196;11.880;2022-09-25T10:41:00;4.50;;;3.90;;
1382;SDS011;685;47.196;11.880;2022-09-25T10:43:30;4.23;;;3.60;;
1382;SDS011;685;47.196;11.880;2022-09-25T10:46:04;4.30;;;3.90;;
1382;SDS011;685;47.196;11.880;2022-09-25T10:48:34;4.37;;;3.97;;
1382;SDS011;685;47.196;11.880;2022-09-25T10:51:19;2.93;;;2.63;;
1382;SDS011;685;47.196;11.880;2022-09-25T10:53:48;9.50;;;7.80;;
1382;SDS011;685;47.196;11.880;2022-09-25T10:56:19;4.37;;;3.70;;
1382;SDS011;685;47.196;11.880;2022-09-25T10:58:53;3.53;;;3.23;;
1382;SDS011;685;47.196;11.880;2022-09-25T11:01:27;3.90;;;3.60;;
1382;SDS011;685;47.196;11.880;2022-09-25T11:03:59;2.83;;;2.53;;
1382;SDS011;685;47.196;11.880;2022-09-25T11:06:31;3.40;;;3.07;;
1382;SDS011;685;47.196;11.880;2022-09-25T11:09:02;3.40;;;3.13;;
1382;SDS011;685;47.196;11.880;2022-09-25T11:11:33;3.70;;;3.40;;
1382;SDS011;685;47.196;11.880;2022-09-25T11:14:03;3.37;;;3.07;;
1382;SDS011;685;47.196;11.880;2022-09-25T11:16:48;4.17;;;3.77;;
1382;SDS011;685;47.196;11.880;2022-09-25T11:19:22;3.77;;;3.47;;
1382;SDS011;685;47.196;11.880;2022-09-25T11:21:54;3.57;;;3.27;;
1382;SDS011;685;47.196;11.880;2022-09-25T11:24:28;3.23;;;2.93;;
1382;SDS011;685;47.196;11.880;2022-09-25T11:27:06;3.17;;;2.87;;
1382;SDS011;685;47.196;11.880;2022-09-25T11:29:41;3.53;;;3.23;;
1382;SDS011;685;47.196;11.880;2022-09-25T11:32:17;3.90;;;3.10;;
1382;SDS011;685;47.196;11.880;2022-09-25T11:34:54;5.37;;;4.27;;
1382;SDS011;685;47.196;11.880;2022-09-25T11:37:30;3.97;;;3.67;;
1382;SDS011;685;47.196;11.880;2022-09-25T11:40:11;3.40;;;2.97;;
1382;SDS011;685;47.196;11.880;2022-09-25T11:43:13;3.37;;;2.83;;
1382;SDS011;685;47.196;11.880;2022-09-25T11:45:46;3.30;;;2.97;;
1382;SDS011;685;47.196;11.880;2022-09-25T11:48:18;3.40;;;2.67;;
1382;SDS011;685;47.196;11.880;2022-09-25T11:50:52;3.30;;;3.00;;
1382;SDS011;685;47.196;11.880;2022-09-25T11:53:29;3.73;;;2.63;;
1382;SDS011;685;47.196;11.880;2022-09-25T11:56:05;3.40;;;2.73;;
1382;SDS011;685;47.196;11.880;2022-09-25T11:58:44;2.73;;;2.53;;
1382;SDS011;685;47.196;11.880;2022-09-25T12:01:28;7.20;;;3.17;;
1382;SDS011;685;47.196;11.880;2022-09-25T12:04:04;2.53;;;2.33;;
1382;SDS011;685;47.196;11.880;2022-09-25T12:07:16;3.70;;;2.77;;
1382;SDS011;685;47.196;11.880;2022-09-25T12:09:56;2.83;;;2.57;;
1382;SDS011;685;47.196;11.880;2022-09-25T12:12:34;3.03;;;2.73;;
1382;SDS011;685;47.196;11.880;2022-09-25T12:15:12;2.90;;;2.57;;
1382;SDS011;685;47.196;11.880;2022-09-25T12:17:49;2.70;;;2.30;;
1382;SDS011;685;47.196;11.880;2022-09-25T12:20:22;3.17;;;2.87;;
1382;SDS011;685;47.196;11.880;2022-09-25T12:22:55;2.80;;;2.60;;
1382;SDS011;685;47.196;11.880;2022-09-25T12:25:44;2.60;;;2.40;;
1382;SDS011;685;47.196;11.880;2022-09-25T12:28:23;2.67;;;2.47;;
1382;SDS011;685;47.196;11.880;2022-09-25T12:31:03;2.70;;;2.50;;
1382;SDS011;685;47.196;11.880;2022-09-25T12:33:40;2.60;;;2.40;;
1382;SDS011;685;47.196;11.880;2022-09-25T12:36:17;3.00;;;2.80;;
1382;SDS011;685;47.196;11.880;2022-09-25T12:38:49;3.37;;;2.50;;
1382;SDS011;685;47.196;11.880;2022-09-25T12:41:24;3.03;;;2.60;;
1382;SDS011;685;47.196;11.880;2022-09-25T12:43:59;3.80;;;2.83;;
1382;SDS011;685;47.196;11.880;2022-09-25T12:46:32;3.23;;;2.90;;
1382;SDS011;685;47.196;11.880;2022-09-25T12:49:07;2.97;;;2.70;;
1382;SDS011;685;47.196;11.880;2022-09-25T12:51:40;2.83;;;2.53;;
1382;SDS011;685;47.196;11.880;2022-09-25T12:54:14;2.50;;;2.30;;
1382;SDS011;685;47.196;11.880;2022-09-25T12:56:49;2.60;;;2.40;;
1382;SDS011;685;47.196;11.880;2022-09-25T12:59:21;2.50;;;2.20;;
1382;SDS011;685;47.196;11.880;2022-09-25T13:01:56;2.80;;;2.40;;
1382;SDS011;685;47.196;11.880;2022-09-25T13:07:23;3.40;;;2.83;;
1382;SDS011;685;47.196;11.880;2022-09-25T13:09:57;2.80;;;2.50;;
1382;SDS011;685;47.196;11.880;2022-09-25T13:12:30;3.50;;;3.20;;
1382;SDS011;685;47.196;11.880;2022-09-25T13:15:00;3.70;;;3.30;;
1382;SDS011;685;47.196;11.880;2022-09-25T13:17:33;3.07;;;2.60;;
1382;SDS011;685;47.196;11.880;2022-09-25T13:23:09;2.63;;;2.40;;
1382;SDS011;685;47.196;11.880;2022-09-25T13:25:39;3.33;;;3.03;;
1382;SDS011;685;47.196;11.880;2022-09-25T13:28:08;3.20;;;2.93;;
1382;SDS011;685;47.196;11.880;2022-09-25T13:30:55;3.53;;;3.13;;
1382;SDS011;685;47.196;11.880;2022-09-25T13:33:24;4.50;;;4.10;;
1382;SDS011;685;47.196;11.880;2022-09-25T13:36:01;4.50;;;3.77;;
1382;SDS011;685;47.196;11.880;2022-09-25T13:38:39;4.03;;;3.53;;
1382;SDS011;685;47.196;11.880;2022-09-25T13:41:27;3.50;;;3.20;;
1382;SDS011;685;47.196;11.880;2022-09-25T13:50:16;2.80;;;2.60;;
1382;SDS011;685;47.196;11.880;2022-09-25T14:01:58;5.23;;;4.70;;
1382;SDS011;685;47.196;11.880;2022-09-25T14:05:03;4.97;;;3.60;;
1382;SDS011;685;47.196;11.880;2022-09-25T14:07:31;7.60;;;4.90;;
1382;SDS011;685;47.196;11.880;2022-09-25T14:09:59;3.63;;;3.33;;
1382;SDS011;685;47.196;11.880;2022-09-25T14:12:31;3.97;;;3.57;;
1382;SDS011;685;47.196;11.880;2022-09-25T14:15:07;4.00;;;3.60;;
1382;SDS011;685;47.196;11.880;2022-09-25T14:17:52;4.67;;;3.47;;
1382;SDS011;685;47.196;11.880;2022-09-25T14:20:29;4.50;;;3.33;;
1382;SDS011;685;47.196;11.880;2022-09-25T14:22:59;3.40;;;3.10;;
1382;SDS011;685;47.196;11.880;2022-09-25T14:25:30;3.30;;;3.00;;
1382;SDS011;685;47.196;11.880;2022-09-25T14:28:00;5.10;;;4.60;;
1382;SDS011;685;47.196;11.880;2022-09-25T14:30:28;4.73;;;4.27;;
1382;SDS011;685;47.196;11.880;2022-09-25T14:35:52;4.43;;;4.03;;
1382;SDS011;685;47.196;11.880;2022-09-25T14:38:33;3.70;;;3.30;;
1382;SDS011;685;47.196;11.880;2022-09-25T14:41:17;3.87;;;3.57;;
1382;SDS011;685;47.196;11.880;2022-09-25T14:44:13;5.97;;;3.20;;
1382;SDS011;685;47.196;11.880;2022-09-25T14:46:49;4.33;;;3.93;;
1382;SDS011;685;47.196;11.880;2022-09-25T14:49:21;3.80;;;3.07;;
1382;SDS011;685;47.196;11.880;2022-09-25T14:51:52;3.20;;;2.90;;
1382;SDS011;685;47.196;11.880;2022-09-25T14:54:22;3.00;;;2.80;;
1382;SDS011;685;47.196;11.880;2022-09-25T14:56:52;3.67;;;3.37;;
1382;SDS011;685;47.196;11.880;2022-09-25T14:59:28;4.40;;;3.97;;
1382;SDS011;685;47.196;11.880;2022-09-25T15:01:57;4.30;;;3.90;;
1382;SDS011;685;47.196;11.880;2022-09-25T15:04:28;4.83;;;4.33;;
1382;SDS011;685;47.196;11.880;2022-09-25T15:06:58;5.17;;;4.67;;
1382;SDS011;685;47.196;11.880;2022-09-25T15:09:28;4.70;;;4.20;;
1382;SDS011;685;47.196;11.880;2022-09-25T15:12:00;4.83;;;4.37;;
1382;SDS011;685;47.196;11.880;2022-09-25T15:14:39;4.37;;;3.73;;
1382;SDS011;685;47.196;11.880;2022-09-25T15:17:21;5.43;;;4.93;;
1382;SDS011;685;47.196;11.880;2022-09-25T15:19:49;6.13;;;5.00;;
1382;SDS011;685;47.196;11.880;2022-09-25T15:22:16;7.70;;;6.00;;
1382;SDS011;685;47.196;11.880;2022-09-25T15:24:48;6.70;;;6.10;;
1382;SDS011;685;47.196;11.880;2022-09-25T15:27:17;6.90;;;6.07;;
1382;SDS011;685;47.196;11.880;2022-09-25T15:29:45;9.83;;;6.57;;
1382;SDS011;685;47.196;11.880;2022-09-25T15:32:15;7.83;;;5.80;;
1382;SDS011;685;47.196;11.880;2022-09-25T15:34:44;8.03;;;6.20;;
1382;SDS011;685;47.196;11.880;2022-09-25T15:37:17;5.37;;;4.87;;
1382;SDS011;685;47.196;11.880;2022-09-25T15:39:50;6.30;;;5.70;;
1382;SDS011;685;47.196;11.880;2022-09-25T15:42:17;7.50;;;6.80;;
1382;SDS011;685;47.196;11.880;2022-09-25T15:44:44;5.50;;;5.00;;
1382;SDS011;685;47.196;11.880;2022-09-25T15:50:19;4.20;;;3.80;;
1382;SDS011;685;47.196;11.880;2022-09-25T15:52:51;4.00;;;3.60;;
1382;SDS011;685;47.196;11.880;2022-09-25T15:55:20;3.20;;;2.90;;
1382;SDS011;685;47.196;11.880;2022-09-25T15:57:48;4.00;;;3.57;;
1382;SDS011;685;47.196;11.880;2022-09-25T16:00:17;6.97;;;6.30;;
1382;SDS011;685;47.196;11.880;2022-09-25T16:03:04;5.10;;;4.53;;
1382;SDS011;685;47.196;11.880;2022-09-25T16:05:55;6.20;;;5.60;;
1382;SDS011;685;47.196;11.880;2022-09-25T16:08:29;7.67;;;6.37;;
1382;SDS011;685;47.196;11.880;2022-09-25T16:11:04;7.57;;;6.87;;
1382;SDS011;685;47.196;11.880;2022-09-25T16:13:41;7.23;;;6.27;;
1382;SDS011;685;47.196;11.880;2022-09-25T16:16:17;5.30;;;4.53;;